createdAt,value
2023-04-27T00:00:26.937Z,34.39
2023-04-27T00:01:26.974Z,34.38
2023-04-27T00:02:27.099Z,34.41
2023-04-27T00:03:27.285Z,34.42
2023-04-27T00:04:27.343Z,34.47
2023-04-27T00:05:27.190Z,34.46
2023-04-27T00:06:27.116Z,34.43
2023-04-27T00:07:27.145Z,34.46
2023-04-27T00:08:27.221Z,34.47
2023-04-27T00:09:27.209Z,34.45
2023-04-27T00:10:27.244Z,34.46
2023-04-27T00:11:27.281Z,34.46
2023-04-27T00:12:27.316Z,34.44
2023-04-27T00:13:27.387Z,34.45
2023-04-27T00:14:27.360Z,34.44
2023-04-27T00:15:27.383Z,34.48
2023-04-27T00:16:27.445Z,34.44
2023-04-27T00:17:27.462Z,34.44
2023-04-27T00:18:27.470Z,34.51
2023-04-27T00:19:27.508Z,34.50
2023-04-27T00:20:27.540Z,34.51
2023-04-27T00:21:27.572Z,34.51
2023-04-27T00:22:27.618Z,34.50
2023-04-27T00:23:27.649Z,34.47
2023-04-27T00:24:27.673Z,34.46
2023-04-27T00:25:27.711Z,34.49
2023-04-27T00:26:27.734Z,34.48
2023-04-27T00:27:27.767Z,34.49
2023-04-27T00:28:27.802Z,34.52
2023-04-27T00:29:27.914Z,34.55
2023-04-27T00:30:27.866Z,34.55
2023-04-27T00:31:27.944Z,34.58
2023-04-27T00:32:27.941Z,34.57
2023-04-27T00:33:27.933Z,34.53
2023-04-27T00:34:28.016Z,34.53
2023-04-27T00:35:27.978Z,34.54
2023-04-27T00:36:27.974Z,34.53
2023-04-27T00:37:27.996Z,34.52
2023-04-27T00:38:28.002Z,34.54
2023-04-27T00:39:28.036Z,34.53
2023-04-27T00:40:28.038Z,34.54
2023-04-27T00:41:28.056Z,34.57
2023-04-27T00:42:28.102Z,34.55
2023-04-27T00:43:28.097Z,34.55
2023-04-27T00:44:28.127Z,34.56
2023-04-27T00:45:28.156Z,34.57
2023-04-27T00:46:28.231Z,34.59
2023-04-27T00:47:28.228Z,34.57
2023-04-27T00:48:28.221Z,34.60
2023-04-27T00:49:28.219Z,34.59
2023-04-27T00:50:28.245Z,34.60
2023-04-27T00:51:28.286Z,34.58
2023-04-27T00:52:28.296Z,34.61
2023-04-27T00:53:28.327Z,34.60
2023-04-27T00:54:28.343Z,34.64
2023-04-27T00:55:28.380Z,34.65
2023-04-27T00:56:28.388Z,34.62
2023-04-27T00:57:28.400Z,34.61
2023-04-27T00:58:28.394Z,34.65
2023-04-27T00:59:28.426Z,34.63
2023-04-27T01:00:28.458Z,34.66
2023-04-27T01:01:28.527Z,34.64
2023-04-27T01:02:28.673Z,34.64
2023-04-27T01:03:28.757Z,34.64
2023-04-27T01:04:28.684Z,34.63
2023-04-27T01:05:29.399Z,34.63
2023-04-27T01:06:28.631Z,34.63
2023-04-27T01:07:28.653Z,34.66
2023-04-27T01:08:28.684Z,34.63
2023-04-27T01:09:28.730Z,34.66
2023-04-27T01:10:28.764Z,34.69
2023-04-27T01:11:28.775Z,34.67
2023-04-27T01:12:28.812Z,34.64
2023-04-27T01:13:28.836Z,34.66
2023-04-27T01:14:28.865Z,34.69
2023-04-27T01:15:28.911Z,34.69
2023-04-27T01:16:28.947Z,34.72
2023-04-27T01:17:28.996Z,34.71
2023-04-27T01:18:29.003Z,34.72
2023-04-27T01:19:29.025Z,34.68
2023-04-27T01:20:29.078Z,34.71
2023-04-27T01:21:29.086Z,34.74
2023-04-27T01:22:29.135Z,34.72
2023-04-27T01:23:29.145Z,34.70
2023-04-27T01:24:29.178Z,34.74
2023-04-27T01:25:29.213Z,34.75
2023-04-27T01:26:29.244Z,34.75
2023-04-27T01:27:29.268Z,34.75
2023-04-27T01:28:29.350Z,34.71
2023-04-27T01:29:29.342Z,34.74
2023-04-27T01:30:29.373Z,34.75
2023-04-27T01:31:29.431Z,34.76
2023-04-27T01:32:29.467Z,34.77
2023-04-27T01:33:29.457Z,34.75
2023-04-27T01:34:29.481Z,34.76
2023-04-27T01:35:29.514Z,34.78
2023-04-27T01:36:29.534Z,34.77
2023-04-27T01:37:29.564Z,34.76
2023-04-27T01:38:29.593Z,34.75
2023-04-27T01:39:29.617Z,34.81
2023-04-27T01:40:29.650Z,34.80
2023-04-27T01:41:29.675Z,34.77
2023-04-27T01:42:29.698Z,34.78
2023-04-27T01:43:29.723Z,34.76
2023-04-27T01:44:29.749Z,34.76
2023-04-27T01:45:29.770Z,34.77
2023-04-27T01:46:29.804Z,34.76
2023-04-27T01:47:29.860Z,34.76
2023-04-27T01:48:29.844Z,34.75
2023-04-27T01:49:29.885Z,34.80
2023-04-27T01:50:29.897Z,34.79
2023-04-27T01:51:29.927Z,34.79
2023-04-27T01:52:29.953Z,34.81
2023-04-27T01:53:29.983Z,34.83
2023-04-27T01:54:30.003Z,34.81
2023-04-27T01:55:30.029Z,34.81
2023-04-27T01:56:30.056Z,34.77
2023-04-27T01:57:30.078Z,34.78
2023-04-27T01:58:30.108Z,34.80
2023-04-27T01:59:30.146Z,34.79
2023-04-27T02:00:30.146Z,34.81
2023-04-27T02:01:30.180Z,34.82
2023-04-27T02:02:30.282Z,34.84
2023-04-27T02:03:30.445Z,34.82
2023-04-27T02:04:30.407Z,34.80
2023-04-27T02:05:30.267Z,34.81
2023-04-27T02:06:30.293Z,34.80
2023-04-27T02:07:30.331Z,34.81
2023-04-27T02:08:30.365Z,34.81
2023-04-27T02:09:30.393Z,34.82
2023-04-27T02:10:30.431Z,34.79
2023-04-27T02:11:30.461Z,34.84
2023-04-27T02:12:30.490Z,34.87
2023-04-27T02:13:30.505Z,34.86
2023-04-27T02:14:30.536Z,34.84
2023-04-27T02:15:30.559Z,34.86
2023-04-27T02:16:30.646Z,34.86
2023-04-27T02:17:30.626Z,34.86
2023-04-27T02:18:30.646Z,34.90
2023-04-27T02:19:30.681Z,34.89
2023-04-27T02:20:30.703Z,34.86
2023-04-27T02:21:30.733Z,34.90
2023-04-27T02:22:30.759Z,34.95
2023-04-27T02:23:30.780Z,34.96
2023-04-27T02:24:30.809Z,34.95
2023-04-27T02:25:30.858Z,34.92
2023-04-27T02:26:30.877Z,34.94
2023-04-27T02:27:30.912Z,34.96
2023-04-27T02:28:30.947Z,34.95
2023-04-27T02:29:30.960Z,34.95
2023-04-27T02:30:30.988Z,34.94
2023-04-27T02:31:31.040Z,34.96
2023-04-27T02:32:31.129Z,34.92
2023-04-27T02:33:31.073Z,34.92
2023-04-27T02:34:31.093Z,34.94
2023-04-27T02:35:31.126Z,34.95
2023-04-27T02:36:31.150Z,34.97
2023-04-27T02:37:31.181Z,34.96
2023-04-27T02:38:31.211Z,34.94
2023-04-27T02:39:31.260Z,34.98
2023-04-27T02:40:31.276Z,34.99
2023-04-27T02:41:31.344Z,34.97
2023-04-27T02:42:31.393Z,34.99
2023-04-27T02:43:31.363Z,35.03
2023-04-27T02:44:31.387Z,35.00
2023-04-27T02:45:31.420Z,35.00
2023-04-27T02:46:31.509Z,35.01
2023-04-27T02:47:31.489Z,35.01
2023-04-27T02:48:31.508Z,35.02
2023-04-27T02:49:31.540Z,35.06
2023-04-27T02:50:31.569Z,35.04
2023-04-27T02:51:31.595Z,35.04
2023-04-27T02:52:31.628Z,35.05
2023-04-27T02:53:31.661Z,35.07
2023-04-27T02:54:31.678Z,35.05
2023-04-27T02:55:31.774Z,35.07
2023-04-27T02:56:31.745Z,35.04
2023-04-27T02:57:31.783Z,35.07
2023-04-27T02:58:31.807Z,35.09
2023-04-27T02:59:31.825Z,35.09
2023-04-27T03:00:31.871Z,35.10
2023-04-27T03:01:31.914Z,35.10
2023-04-27T03:02:31.957Z,35.09
2023-04-27T03:03:32.075Z,35.09
2023-04-27T03:04:32.025Z,35.10
2023-04-27T03:05:32.034Z,35.10
2023-04-27T03:06:32.048Z,35.12
2023-04-27T03:07:32.091Z,35.12
2023-04-27T03:08:32.123Z,35.13
2023-04-27T03:09:32.139Z,35.16
2023-04-27T03:10:32.186Z,35.13
2023-04-27T03:11:32.215Z,35.16
2023-04-27T03:12:32.239Z,35.15
2023-04-27T03:13:32.268Z,35.12
2023-04-27T03:14:32.304Z,35.17
2023-04-27T03:15:32.325Z,35.13
2023-04-27T03:16:32.367Z,35.13
2023-04-27T03:17:32.408Z,35.16
2023-04-27T03:18:32.496Z,35.17
2023-04-27T03:19:32.453Z,35.17
2023-04-27T03:20:32.485Z,35.18
2023-04-27T03:21:32.501Z,35.21
2023-04-27T03:22:33.268Z,35.18
2023-04-27T03:23:32.546Z,35.17
2023-04-27T03:24:32.571Z,35.16
2023-04-27T03:25:32.605Z,35.20
2023-04-27T03:26:32.626Z,35.18
2023-04-27T03:27:32.666Z,35.18
2023-04-27T03:28:32.678Z,35.18
2023-04-27T03:29:32.721Z,35.18
2023-04-27T03:30:32.739Z,35.20
2023-04-27T03:31:32.784Z,35.22
2023-04-27T03:32:32.849Z,35.18
2023-04-27T03:33:32.822Z,35.18
2023-04-27T03:34:32.846Z,35.21
2023-04-27T03:35:32.866Z,35.21
2023-04-27T03:36:32.896Z,35.24
2023-04-27T03:37:32.905Z,35.25
2023-04-27T03:38:32.927Z,35.23
2023-04-27T03:39:32.943Z,35.20
2023-04-27T03:40:32.976Z,35.20
2023-04-27T03:41:32.992Z,35.19
2023-04-27T03:42:33.023Z,35.21
2023-04-27T03:43:33.038Z,35.19
2023-04-27T03:44:33.059Z,35.22
2023-04-27T03:45:33.087Z,35.21
2023-04-27T03:46:33.171Z,35.23
2023-04-27T03:47:33.136Z,35.23
2023-04-27T03:48:33.210Z,35.23
2023-04-27T03:49:33.181Z,35.25
2023-04-27T03:50:33.205Z,35.23
2023-04-27T03:51:33.240Z,35.23
2023-04-27T03:52:33.247Z,35.23
2023-04-27T03:53:33.275Z,35.26
2023-04-27T03:54:33.311Z,35.24
2023-04-27T03:55:33.340Z,35.26
2023-04-27T03:56:33.371Z,35.24
2023-04-27T03:57:33.416Z,35.27
2023-04-27T03:58:33.449Z,35.25
2023-04-27T03:59:33.488Z,35.30
2023-04-27T04:00:33.500Z,35.27
2023-04-27T04:01:33.532Z,35.29
2023-04-27T04:02:33.682Z,35.26
2023-04-27T04:03:33.710Z,35.25
2023-04-27T04:04:33.724Z,35.29
2023-04-27T04:05:33.648Z,35.31
2023-04-27T04:06:33.673Z,35.31
2023-04-27T04:07:33.701Z,35.31
2023-04-27T04:08:33.713Z,35.33
2023-04-27T04:09:33.739Z,35.32
2023-04-27T04:10:33.772Z,35.33
2023-04-27T04:11:33.795Z,35.33
2023-04-27T04:12:33.831Z,35.31
2023-04-27T04:13:33.848Z,35.35
2023-04-27T04:14:33.876Z,35.35
2023-04-27T04:15:33.888Z,35.36
2023-04-27T04:16:33.913Z,35.34
2023-04-27T04:17:33.966Z,35.37
2023-04-27T04:18:33.934Z,35.40
2023-04-27T04:19:33.969Z,35.38
2023-04-27T04:20:33.994Z,35.36
2023-04-27T04:21:34.032Z,35.37
2023-04-27T04:22:34.047Z,35.36
2023-04-27T04:23:34.057Z,35.38
2023-04-27T04:24:34.106Z,35.39
2023-04-27T04:25:34.112Z,35.41
2023-04-27T04:26:34.101Z,35.39
2023-04-27T04:27:34.119Z,35.39
2023-04-27T04:28:34.151Z,35.41
2023-04-27T04:29:34.158Z,35.41
2023-04-27T04:30:34.175Z,35.42
2023-04-27T04:31:34.247Z,35.42
2023-04-27T04:32:34.208Z,35.44
2023-04-27T04:33:34.222Z,35.42
2023-04-27T04:34:34.265Z,35.43
2023-04-27T04:35:34.276Z,35.46
2023-04-27T04:36:34.312Z,35.43
2023-04-27T04:37:34.337Z,35.42
2023-04-27T04:38:34.371Z,35.40
2023-04-27T04:39:34.409Z,35.42
2023-04-27T04:40:34.421Z,35.46
2023-04-27T04:41:34.450Z,35.47
2023-04-27T04:42:34.477Z,35.47
2023-04-27T04:43:34.516Z,35.48
2023-04-27T04:44:34.518Z,35.48
2023-04-27T04:45:34.548Z,35.46
2023-04-27T04:46:34.576Z,35.48
2023-04-27T04:47:34.657Z,35.49
2023-04-27T04:48:34.611Z,35.49
2023-04-27T04:49:34.633Z,35.49
2023-04-27T04:50:34.648Z,35.48
2023-04-27T04:51:34.673Z,35.50
2023-04-27T04:52:34.707Z,35.53
2023-04-27T04:53:34.728Z,35.53
2023-04-27T04:54:34.742Z,35.52
2023-04-27T04:55:34.778Z,35.52
2023-04-27T04:56:34.800Z,35.50
2023-04-27T04:57:34.824Z,35.51
2023-04-27T04:58:34.843Z,35.52
2023-04-27T04:59:34.863Z,35.53
2023-04-27T05:00:34.873Z,35.69
2023-04-27T05:01:34.959Z,35.88
2023-04-27T05:02:35.057Z,35.96
2023-04-27T05:03:35.109Z,36.00
2023-04-27T05:04:34.975Z,35.88
2023-04-27T05:05:34.958Z,35.85
2023-04-27T05:06:34.983Z,35.86
2023-04-27T05:07:35.011Z,35.81
2023-04-27T05:08:35.037Z,35.84
2023-04-27T05:09:35.080Z,35.82
2023-04-27T05:10:35.113Z,35.82
2023-04-27T05:11:35.158Z,35.83
2023-04-27T05:12:35.183Z,35.91
2023-04-27T05:13:35.204Z,36.22
2023-04-27T05:14:35.243Z,36.54
2023-04-27T05:15:35.280Z,37.04
2023-04-27T05:16:35.504Z,37.47
2023-04-27T05:17:35.330Z,37.01
2023-04-27T05:18:35.338Z,37.35
2023-04-27T05:19:35.271Z,37.41
2023-04-27T05:20:35.253Z,37.41
2023-04-27T05:21:35.262Z,38.14
2023-04-27T05:22:35.244Z,38.60
2023-04-27T05:23:35.217Z,38.75
2023-04-27T05:24:35.204Z,39.37
2023-04-27T05:25:35.202Z,39.76
2023-04-27T05:26:35.221Z,40.75
2023-04-27T05:27:35.231Z,40.04
2023-04-27T05:28:35.198Z,39.73
2023-04-27T05:29:35.220Z,39.84
2023-04-27T05:30:35.251Z,39.52
2023-04-27T05:31:35.289Z,38.90
2023-04-27T05:32:35.231Z,37.64
2023-04-27T05:33:35.196Z,37.52
2023-04-27T05:34:35.202Z,37.49
2023-04-27T05:35:35.158Z,37.57
2023-04-27T05:36:35.138Z,37.40
2023-04-27T05:37:35.126Z,38.53
2023-04-27T05:38:35.101Z,38.45
2023-04-27T05:39:35.113Z,38.86
2023-04-27T05:40:35.063Z,38.31
2023-04-27T05:41:35.071Z,38.37
2023-04-27T05:42:35.059Z,38.25
2023-04-27T05:43:35.038Z,38.14
2023-04-27T05:44:35.018Z,38.06
2023-04-27T05:45:35.033Z,38.07
2023-04-27T05:46:37.913Z,38.03
2023-04-27T05:47:34.998Z,37.97
2023-04-27T05:48:34.957Z,38.01
2023-04-27T05:49:34.961Z,37.91
2023-04-27T05:50:34.918Z,37.94
2023-04-27T05:51:34.957Z,37.86
2023-04-27T05:52:36.381Z,37.95
2023-04-27T05:53:35.101Z,37.84
2023-04-27T05:54:35.774Z,37.81
2023-04-27T05:55:35.089Z,37.89
2023-04-27T05:56:35.076Z,37.83
2023-04-27T05:57:35.106Z,37.85
2023-04-27T05:58:35.101Z,38.72
2023-04-27T05:59:35.150Z,38.80
2023-04-27T06:00:35.207Z,38.94
2023-04-27T06:01:35.260Z,38.79
2023-04-27T06:02:35.492Z,38.69
2023-04-27T06:03:35.418Z,38.75
2023-04-27T06:04:35.457Z,38.50
2023-04-27T06:05:35.505Z,38.32
2023-04-27T06:06:35.572Z,38.23
2023-04-27T06:07:35.420Z,38.25
2023-04-27T06:08:35.445Z,38.22
2023-04-27T06:09:35.457Z,38.24
2023-04-27T06:10:35.504Z,38.14
2023-04-27T06:11:35.504Z,38.15
2023-04-27T06:12:35.511Z,38.13
2023-04-27T06:13:35.502Z,38.15
2023-04-27T06:14:35.527Z,38.13
2023-04-27T06:15:35.900Z,38.12
2023-04-27T06:16:35.575Z,38.09
2023-04-27T06:17:35.628Z,38.09
2023-04-27T06:18:35.581Z,38.31
2023-04-27T06:19:36.561Z,38.20
2023-04-27T06:20:35.552Z,38.24
2023-04-27T06:21:37.374Z,38.31
2023-04-27T06:22:35.537Z,38.75
2023-04-27T06:23:35.534Z,38.82
2023-04-27T06:24:35.529Z,39.04
2023-04-27T06:25:35.515Z,39.05
2023-04-27T06:26:35.521Z,39.32
2023-04-27T06:27:37.378Z,39.40
2023-04-27T06:28:36.373Z,40.30
2023-04-27T06:29:35.531Z,40.33
2023-04-27T06:30:37.495Z,40.25
2023-04-27T06:31:35.528Z,40.04
2023-04-27T06:32:35.478Z,39.40
2023-04-27T06:33:35.459Z,39.03
2023-04-27T06:34:35.432Z,38.95
2023-04-27T06:35:35.435Z,38.97
2023-04-27T06:36:35.399Z,38.99
2023-04-27T06:37:36.291Z,38.97
2023-04-27T06:38:35.387Z,38.87
2023-04-27T06:39:35.358Z,38.84
2023-04-27T06:40:35.885Z,38.80
2023-04-27T06:41:35.474Z,38.82
2023-04-27T06:42:35.302Z,38.79
2023-04-27T06:43:35.285Z,38.81
2023-04-27T06:44:35.303Z,38.79
2023-04-27T06:45:36.803Z,38.86
2023-04-27T06:46:35.369Z,38.82
2023-04-27T06:47:36.233Z,38.80
2023-04-27T06:48:36.229Z,38.76
2023-04-27T06:49:35.807Z,38.78
2023-04-27T06:50:42.891Z,38.80
2023-04-27T06:51:35.155Z,38.83
2023-04-27T06:52:35.392Z,38.81
2023-04-27T06:53:35.142Z,38.82
2023-04-27T06:54:35.138Z,38.83
2023-04-27T06:55:35.097Z,38.76
2023-04-27T06:56:35.081Z,38.72
2023-04-27T06:57:35.068Z,38.69
2023-04-27T06:58:35.052Z,38.68
2023-04-27T06:59:35.046Z,38.70
2023-04-27T07:00:35.031Z,38.68
2023-04-27T07:01:35.914Z,38.65
2023-04-27T07:02:35.065Z,38.65
2023-04-27T07:03:35.150Z,38.67
2023-04-27T07:04:34.986Z,38.69
2023-04-27T07:05:34.963Z,38.65
2023-04-27T07:06:34.967Z,38.70
2023-04-27T07:07:34.955Z,38.71
2023-04-27T07:08:35.027Z,38.75
2023-04-27T07:09:34.922Z,38.75
2023-04-27T07:10:34.917Z,38.74
2023-04-27T07:11:34.908Z,38.69
2023-04-27T07:12:34.890Z,38.74
2023-04-27T07:13:35.896Z,38.71
2023-04-27T07:14:34.863Z,39.09
2023-04-27T07:15:34.876Z,39.39
2023-04-27T07:16:34.909Z,39.40
2023-04-27T07:17:34.890Z,39.41
2023-04-27T07:18:35.984Z,39.45
2023-04-27T07:19:34.848Z,39.45
2023-04-27T07:20:34.991Z,39.52
2023-04-27T07:21:34.822Z,39.61
2023-04-27T07:22:34.816Z,39.70
2023-04-27T07:23:34.786Z,39.67
2023-04-27T07:24:34.792Z,39.77
2023-04-27T07:25:34.763Z,40.21
2023-04-27T07:26:34.760Z,40.64
2023-04-27T07:27:35.841Z,40.56
2023-04-27T07:28:35.760Z,40.42
2023-04-27T07:29:34.909Z,40.24
2023-04-27T07:30:35.469Z,40.31
2023-04-27T07:31:34.781Z,40.34
2023-04-27T07:32:34.659Z,40.23
2023-04-27T07:33:34.600Z,40.09
2023-04-27T07:34:48.991Z,40.12
2023-04-27T07:35:35.580Z,39.71
2023-04-27T07:36:34.541Z,39.43
2023-04-27T07:37:34.523Z,39.44
2023-04-27T07:38:34.503Z,39.45
2023-04-27T07:39:34.481Z,39.78
2023-04-27T07:40:34.525Z,39.50
2023-04-27T07:41:34.454Z,39.46
2023-04-27T07:42:34.439Z,39.38
2023-04-27T07:43:34.414Z,39.36
2023-04-27T07:44:34.391Z,39.31
2023-04-27T07:45:34.487Z,39.40
2023-04-27T07:46:34.365Z,39.45
2023-04-27T07:47:34.465Z,39.82
2023-04-27T07:48:34.337Z,39.93
2023-04-27T07:49:34.318Z,40.18
2023-04-27T07:50:34.288Z,40.16
2023-04-27T07:51:34.329Z,40.04
2023-04-27T07:52:34.271Z,40.08
2023-04-27T07:53:34.259Z,40.03
2023-04-27T07:54:34.243Z,40.12
2023-04-27T07:55:34.235Z,39.78
2023-04-27T07:56:34.199Z,39.65
2023-04-27T07:57:34.295Z,39.68
2023-04-27T07:58:34.227Z,39.69
2023-04-27T07:59:34.133Z,39.73
2023-04-27T08:00:34.131Z,39.67
2023-04-27T08:01:34.212Z,39.61
2023-04-27T08:02:34.150Z,39.64
2023-04-27T08:03:34.322Z,39.74
2023-04-27T08:04:34.433Z,39.38
2023-04-27T08:05:34.474Z,38.97
2023-04-27T08:06:34.409Z,38.91
2023-04-27T08:07:36.046Z,38.79
2023-04-27T08:08:35.090Z,38.42
2023-04-27T08:09:34.071Z,38.52
2023-04-27T08:10:34.002Z,38.55
2023-04-27T08:11:33.981Z,39.31
2023-04-27T08:12:34.926Z,39.78
2023-04-27T08:13:33.963Z,40.02
2023-04-27T08:14:34.827Z,40.19
2023-04-27T08:15:33.938Z,40.66
2023-04-27T08:16:33.993Z,40.78
2023-04-27T08:17:33.937Z,40.43
2023-04-27T08:18:33.914Z,40.38
2023-04-27T08:19:33.914Z,40.02
2023-04-27T08:20:35.378Z,39.52
2023-04-27T08:21:33.888Z,39.58
2023-04-27T08:22:33.884Z,38.94
2023-04-27T08:23:33.892Z,38.73
2023-04-27T08:24:34.917Z,37.90
2023-04-27T08:25:34.002Z,37.50
2023-04-27T08:26:34.059Z,37.68
2023-04-27T08:27:34.097Z,37.90
2023-04-27T08:28:34.193Z,38.17
2023-04-27T08:29:34.608Z,38.33
2023-04-27T08:30:34.287Z,38.42
2023-04-27T08:31:34.367Z,38.41
2023-04-27T08:32:34.383Z,38.55
2023-04-27T08:33:34.381Z,38.54
2023-04-27T08:34:34.404Z,38.96
2023-04-27T08:35:34.389Z,39.27
2023-04-27T08:36:35.385Z,39.44
2023-04-27T08:37:34.340Z,39.57
2023-04-27T08:38:34.347Z,39.47
2023-04-27T08:39:34.303Z,39.48
2023-04-27T08:40:34.285Z,39.47
2023-04-27T08:41:34.258Z,39.46
2023-04-27T08:42:34.233Z,39.55
2023-04-27T08:43:34.210Z,39.48
2023-04-27T08:44:34.205Z,39.52
2023-04-27T08:45:34.150Z,39.65
2023-04-27T08:46:34.149Z,39.83
2023-04-27T08:47:42.645Z,39.89
2023-04-27T08:48:35.129Z,39.90
2023-04-27T08:49:34.061Z,39.86
2023-04-27T08:50:34.134Z,39.95
2023-04-27T08:51:34.043Z,39.97
2023-04-27T08:52:34.002Z,39.76
2023-04-27T08:53:33.979Z,39.77
2023-04-27T08:54:34.006Z,39.79
2023-04-27T08:55:33.987Z,39.83
2023-04-27T08:56:33.946Z,39.87
2023-04-27T08:57:33.925Z,39.88
2023-04-27T08:58:33.895Z,39.91
2023-04-27T08:59:34.942Z,39.93
2023-04-27T09:00:33.857Z,39.92
2023-04-27T09:01:33.886Z,39.86
2023-04-27T09:02:33.885Z,39.83
2023-04-27T09:03:33.915Z,39.83
2023-04-27T09:04:33.857Z,39.79
2023-04-27T09:05:33.819Z,39.78
2023-04-27T09:06:33.781Z,39.79
2023-04-27T09:07:33.709Z,39.81
2023-04-27T09:08:33.712Z,39.85
2023-04-27T09:09:33.685Z,39.84
2023-04-27T09:10:33.671Z,39.83
2023-04-27T09:11:33.675Z,39.81
2023-04-27T09:12:33.629Z,39.82
2023-04-27T09:13:33.613Z,39.79
2023-04-27T09:14:33.602Z,39.83
2023-04-27T09:15:33.592Z,39.85
2023-04-27T09:16:35.519Z,40.14
2023-04-27T09:17:33.648Z,40.14
2023-04-27T09:18:33.578Z,40.16
2023-04-27T09:19:33.592Z,40.14
2023-04-27T09:20:33.589Z,40.30
2023-04-27T09:21:33.598Z,40.34
2023-04-27T09:22:33.586Z,40.29
2023-04-27T09:23:33.587Z,40.29
2023-04-27T09:24:33.642Z,40.43
2023-04-27T09:25:33.570Z,40.48
2023-04-27T09:26:33.560Z,40.50
2023-04-27T09:27:33.533Z,40.55
2023-04-27T09:28:33.499Z,40.55
2023-04-27T09:29:33.493Z,40.51
2023-04-27T09:30:33.476Z,40.52
2023-04-27T09:31:33.493Z,40.53
2023-04-27T09:32:33.447Z,40.39
2023-04-27T09:33:33.435Z,40.33
2023-04-27T09:34:33.414Z,40.38
2023-04-27T09:35:33.395Z,40.34
2023-04-27T09:36:33.376Z,40.35
2023-04-27T09:37:33.345Z,40.35
2023-04-27T09:38:33.363Z,40.36
2023-04-27T09:39:33.332Z,40.37
2023-04-27T09:40:33.312Z,40.38
2023-04-27T09:41:33.288Z,40.38
2023-04-27T09:42:33.277Z,40.38
2023-04-27T09:43:33.263Z,40.38
2023-04-27T09:44:33.256Z,40.40
2023-04-27T09:45:33.269Z,40.40
2023-04-27T09:46:33.218Z,40.41
2023-04-27T09:47:33.228Z,40.44
2023-04-27T09:48:33.207Z,40.42
2023-04-27T09:49:33.206Z,40.49
2023-04-27T09:50:33.222Z,40.58
2023-04-27T09:51:33.240Z,40.57
2023-04-27T09:52:33.268Z,40.59
2023-04-27T09:53:33.252Z,40.52
2023-04-27T09:54:33.245Z,40.51
2023-04-27T09:55:33.255Z,40.48
2023-04-27T09:56:33.235Z,40.49
2023-04-27T09:57:33.232Z,40.47
2023-04-27T09:58:33.220Z,40.46
2023-04-27T09:59:33.227Z,40.51
2023-04-27T10:00:33.213Z,40.61
2023-04-27T10:01:33.899Z,40.62
2023-04-27T10:02:40.040Z,40.71
2023-04-27T10:03:34.258Z,40.63
2023-04-27T10:04:33.478Z,40.63
2023-04-27T10:05:33.150Z,40.63
2023-04-27T10:06:33.133Z,40.72
2023-04-27T10:07:33.257Z,42.32
2023-04-27T10:08:33.085Z,42.28
2023-04-27T10:09:33.101Z,42.00
2023-04-27T10:10:33.085Z,41.54
2023-04-27T10:11:33.087Z,41.46
2023-04-27T10:12:33.073Z,41.59
2023-04-27T10:13:33.981Z,41.35
2023-04-27T10:14:33.066Z,41.35
2023-04-27T10:15:33.052Z,40.87
2023-04-27T10:16:33.070Z,40.59
2023-04-27T10:17:33.129Z,40.43
2023-04-27T10:18:33.048Z,40.41
2023-04-27T10:19:33.104Z,40.34
2023-04-27T10:20:33.053Z,40.21
2023-04-27T10:21:33.063Z,40.14
2023-04-27T10:22:33.058Z,40.05
2023-04-27T10:23:33.128Z,40.44
2023-04-27T10:24:33.102Z,40.48
2023-04-27T10:25:33.068Z,40.39
2023-04-27T10:26:33.818Z,40.06
2023-04-27T10:27:33.246Z,40.40
2023-04-27T10:28:33.253Z,40.92
2023-04-27T10:29:33.247Z,40.89
2023-04-27T10:30:33.297Z,40.92
2023-04-27T10:31:33.272Z,40.94
2023-04-27T10:32:33.321Z,40.74
2023-04-27T10:33:33.252Z,40.71
2023-04-27T10:34:33.314Z,40.61
2023-04-27T10:35:33.292Z,40.52
2023-04-27T10:36:33.283Z,40.51
2023-04-27T10:37:33.280Z,40.78
2023-04-27T10:38:33.318Z,40.62
2023-04-27T10:39:47.165Z,40.40
2023-04-27T10:40:34.316Z,40.35
2023-04-27T10:41:33.258Z,40.31
2023-04-27T10:42:33.222Z,40.29
2023-04-27T10:43:33.237Z,40.56
2023-04-27T10:44:33.174Z,40.68
2023-04-27T10:45:33.151Z,40.59
2023-04-27T10:46:33.189Z,40.28
2023-04-27T10:47:33.178Z,40.85
2023-04-27T10:48:33.214Z,40.75
2023-04-27T10:49:33.095Z,40.65
2023-04-27T10:50:33.124Z,40.61
2023-04-27T10:51:33.057Z,40.93
2023-04-27T10:52:33.031Z,40.76
2023-04-27T10:53:33.087Z,40.78
2023-04-27T10:54:32.992Z,40.78
2023-04-27T10:55:32.971Z,40.62
2023-04-27T10:56:32.953Z,40.80
2023-04-27T10:57:32.938Z,40.87
2023-04-27T10:58:45.294Z,41.07
2023-04-27T10:59:33.901Z,41.51
2023-04-27T11:00:32.939Z,41.30
2023-04-27T11:01:33.021Z,41.38
2023-04-27T11:02:32.924Z,41.22
2023-04-27T11:03:33.043Z,41.76
2023-04-27T11:04:32.910Z,42.01
2023-04-27T11:05:33.061Z,41.93
2023-04-27T11:06:32.876Z,41.87
2023-04-27T11:07:32.869Z,42.38
2023-04-27T11:08:32.869Z,42.75
2023-04-27T11:09:32.990Z,42.71
2023-04-27T11:10:32.893Z,41.89
2023-04-27T11:11:32.976Z,42.34
2023-04-27T11:12:32.833Z,42.40
2023-04-27T11:13:32.854Z,42.01
2023-04-27T11:14:32.939Z,41.75
2023-04-27T11:15:32.767Z,42.35
2023-04-27T11:16:33.127Z,41.61
2023-04-27T11:17:32.768Z,41.11
2023-04-27T11:18:32.709Z,40.12
2023-04-27T11:19:32.723Z,40.29
2023-04-27T11:20:32.743Z,40.32
2023-04-27T11:21:32.714Z,40.28
2023-04-27T11:22:32.739Z,40.25
2023-04-27T11:23:32.708Z,40.18
2023-04-27T11:24:32.696Z,40.05
2023-04-27T11:25:32.702Z,40.72
2023-04-27T11:26:32.705Z,40.83
2023-04-27T11:27:32.736Z,40.74
2023-04-27T11:28:32.719Z,39.69
2023-04-27T11:29:34.484Z,39.53
2023-04-27T11:30:32.713Z,40.16
2023-04-27T11:31:32.814Z,40.27
2023-04-27T11:32:33.511Z,39.85
2023-04-27T11:33:32.714Z,38.98
2023-04-27T11:34:32.725Z,39.19
2023-04-27T11:35:32.715Z,38.99
2023-04-27T11:36:32.693Z,39.46
2023-04-27T11:37:32.674Z,39.78
2023-04-27T11:38:32.717Z,39.94
2023-04-27T11:39:32.664Z,38.43
2023-04-27T11:40:32.655Z,39.21
2023-04-27T11:41:32.642Z,39.59
2023-04-27T11:42:32.638Z,39.16
2023-04-27T11:43:32.667Z,39.34
2023-04-27T11:44:32.656Z,39.93
2023-04-27T11:45:32.644Z,39.92
2023-04-27T11:46:32.656Z,39.70
2023-04-27T11:47:32.658Z,39.32
2023-04-27T11:48:32.676Z,39.43
2023-04-27T11:49:32.638Z,38.87
2023-04-27T11:50:32.639Z,38.61
2023-04-27T11:51:32.657Z,38.74
2023-04-27T11:52:32.779Z,38.50
2023-04-27T11:53:32.658Z,38.21
2023-04-27T11:54:32.651Z,38.30
2023-04-27T11:55:32.648Z,37.88
2023-04-27T11:56:32.642Z,37.52
2023-04-27T11:57:32.642Z,37.35
2023-04-27T11:58:32.647Z,37.40
2023-04-27T11:59:32.659Z,37.50
2023-04-27T12:00:32.674Z,37.32
2023-04-27T12:01:38.109Z,37.24
2023-04-27T12:02:33.771Z,38.46
2023-04-27T12:03:32.735Z,38.52
2023-04-27T12:04:32.811Z,38.37
2023-04-27T12:05:32.728Z,38.94
2023-04-27T12:06:33.488Z,39.19
2023-04-27T12:07:32.603Z,38.98
2023-04-27T12:08:32.693Z,38.99
2023-04-27T12:09:32.541Z,38.68
2023-04-27T12:10:32.667Z,38.03
2023-04-27T12:11:32.501Z,37.65
2023-04-27T12:12:32.469Z,37.44
2023-04-27T12:13:32.558Z,37.37
2023-04-27T12:14:32.463Z,37.07
2023-04-27T12:15:32.405Z,36.73
2023-04-27T12:16:32.415Z,36.77
2023-04-27T12:17:32.378Z,36.72
2023-04-27T12:18:32.341Z,36.68
2023-04-27T12:19:32.346Z,36.67
2023-04-27T12:20:32.286Z,36.63
2023-04-27T12:21:32.299Z,36.59
2023-04-27T12:22:32.217Z,36.52
2023-04-27T12:23:32.202Z,36.53
2023-04-27T12:24:32.210Z,36.65
2023-04-27T12:25:32.206Z,36.63
2023-04-27T12:26:32.194Z,36.98
2023-04-27T12:27:32.202Z,37.39
2023-04-27T12:28:32.189Z,37.10
2023-04-27T12:29:32.179Z,37.22
2023-04-27T12:30:32.207Z,36.65
2023-04-27T12:31:32.258Z,36.49
2023-04-27T12:32:32.208Z,36.65
2023-04-27T12:33:32.208Z,36.69
2023-04-27T12:34:32.184Z,36.43
2023-04-27T12:35:32.282Z,36.64
2023-04-27T12:36:32.200Z,36.38
2023-04-27T12:37:32.169Z,36.36
2023-04-27T12:38:32.172Z,36.41
2023-04-27T12:39:32.169Z,36.32
2023-04-27T12:40:32.140Z,36.06
2023-04-27T12:41:32.120Z,36.06
2023-04-27T12:42:32.131Z,36.16
2023-04-27T12:43:32.103Z,36.19
2023-04-27T12:44:32.128Z,35.85
2023-04-27T12:45:32.136Z,35.82
2023-04-27T12:46:32.133Z,36.08
2023-04-27T12:47:53.936Z,36.01
2023-04-27T12:48:33.113Z,36.00
2023-04-27T12:49:32.049Z,36.00
2023-04-27T12:50:32.263Z,36.86
2023-04-27T12:51:32.012Z,37.35
2023-04-27T12:52:31.999Z,36.74